sensor_id;sensor_type;location;lat;lon;timestamp;pressure;altitude;pressure_sealevel;temperature;humidity
6413;BME280;3239;48.714;9.472;2023-03-13T00:00:44;98031.31;;;5.87;100.00
6413;BME280;3239;48.714;9.472;2023-03-13T00:03:09;98023.91;;;5.82;100.00
6413;BME280;3239;48.714;9.472;2023-03-13T00:05:36;98027.34;;;5.88;100.00
6413;BME280;3239;48.714;9.472;2023-03-13T00:08:02;98029.06;;;5.80;100.00
6413;BME280;3239;48.714;9.472;2023-03-13T00:10:28;98035.75;;;5.84;100.00
6413;BME280;3239;48.714;9.472;2023-03-13T00:12:54;98035.28;;;5.86;100.00
6413;BME280;3239;48.714;9.472;2023-03-13T00:15:19;98041.19;;;5.90;100.00
6413;BME280;3239;48.714;9.472;2023-03-13T00:17:45;98040.44;;;5.95;100.00
6413;BME280;3239;48.714;9.472;2023-03-13T00:20:11;98043.16;;;5.95;100.00
6413;BME280;3239;48.714;9.472;2023-03-13T00:22:37;98041.91;;;5.96;100.00
6413;BME280;3239;48.714;9.472;2023-03-13T00:25:03;98041.19;;;5.95;100.00
6413;BME280;3239;48.714;9.472;2023-03-13T00:27:32;98041.44;;;5.92;100.00
6413;BME280;3239;48.714;9.472;2023-03-13T00:29:59;98032.53;;;5.91;100.00
6413;BME280;3239;48.714;9.472;2023-03-13T00:32:25;98032.78;;;5.99;100.00
6413;BME280;3239;48.714;9.472;2023-03-13T00:34:51;98036.72;;;6.03;100.00
6413;BME280;3239;48.714;9.472;2023-03-13T00:37:16;98032.03;;;5.87;100.00
6413;BME280;3239;48.714;9.472;2023-03-13T00:39:42;98035.75;;;5.90;100.00
6413;BME280;3239;48.714;9.472;2023-03-13T00:42:09;98035.50;;;5.93;100.00
6413;BME280;3239;48.714;9.472;2023-03-13T00:44:35;98046.63;;;5.90;100.00
6413;BME280;3239;48.714;9.472;2023-03-13T00:47:00;98029.56;;;5.84;100.00
6413;BME280;3239;48.714;9.472;2023-03-13T00:49:26;98033.50;;;5.72;100.00
6413;BME280;3239;48.714;9.472;2023-03-13T00:51:52;98038.69;;;5.64;100.00
6413;BME280;3239;48.714;9.472;2023-03-13T00:54:18;98042.16;;;5.76;100.00
6413;BME280;3239;48.714;9.472;2023-03-13T00:56:43;98037.44;;;5.76;100.00
6413;BME280;3239;48.714;9.472;2023-03-13T00:59:09;98042.16;;;5.76;100.00
6413;BME280;3239;48.714;9.472;2023-03-13T01:01:35;98040.94;;;5.82;100.00
6413;BME280;3239;48.714;9.472;2023-03-13T01:04:09;98032.56;;;5.86;100.00
6413;BME280;3239;48.714;9.472;2023-03-13T01:06:39;98026.63;;;5.82;100.00
6413;BME280;3239;48.714;9.472;2023-03-13T01:09:09;98028.31;;;5.68;100.00
6413;BME280;3239;48.714;9.472;2023-03-13T01:11:38;98011.50;;;5.64;100.00
6413;BME280;3239;48.714;9.472;2023-03-13T01:14:09;98016.72;;;5.73;100.00
6413;BME280;3239;48.714;9.472;2023-03-13T01:16:37;98005.81;;;5.68;100.00
6413;BME280;3239;48.714;9.472;2023-03-13T01:19:07;98010.28;;;5.60;100.00
6413;BME280;3239;48.714;9.472;2023-03-13T01:21:33;98002.63;;;5.58;100.00
6413;BME280;3239;48.714;9.472;2023-03-13T01:23:59;97997.66;;;5.51;100.00
6413;BME280;3239;48.714;9.472;2023-03-13T01:26:25;97992.75;;;5.61;100.00
6413;BME280;3239;48.714;9.472;2023-03-13T01:28:51;98002.63;;;5.58;100.00
6413;BME280;3239;48.714;9.472;2023-03-13T01:31:29;97995.72;;;5.57;100.00
6413;BME280;3239;48.714;9.472;2023-03-13T01:33:59;97986.81;;;5.62;100.00
6413;BME280;3239;48.714;9.472;2023-03-13T01:36:25;97987.53;;;5.63;100.00
6413;BME280;3239;48.714;9.472;2023-03-13T01:38:54;97983.13;;;5.49;100.00
6413;BME280;3239;48.714;9.472;2023-03-13T01:41:22;97977.16;;;5.50;100.00
6413;BME280;3239;48.714;9.472;2023-03-13T01:43:49;97978.16;;;5.58;100.00
6413;BME280;3239;48.714;9.472;2023-03-13T01:46:17;97977.16;;;5.50;100.00
6413;BME280;3239;48.714;9.472;2023-03-13T01:54:04;97977.41;;;5.58;100.00
6413;BME280;3239;48.714;9.472;2023-03-13T01:56:55;97972.00;;;5.63;100.00
6413;BME280;3239;48.714;9.472;2023-03-13T01:59:39;97967.03;;;5.73;100.00
6413;BME280;3239;48.714;9.472;2023-03-13T02:02:07;97963.31;;;5.70;100.00
6413;BME280;3239;48.714;9.472;2023-03-13T02:04:38;97953.22;;;5.60;100.00
6413;BME280;3239;48.714;9.472;2023-03-13T02:07:15;97951.25;;;5.66;100.00
6413;BME280;3239;48.714;9.472;2023-03-13T02:09:47;97942.38;;;5.49;100.00
6413;BME280;3239;48.714;9.472;2023-03-13T02:12:22;97931.97;;;5.53;100.00
6413;BME280;3239;48.714;9.472;2023-03-13T02:14:50;97933.41;;;5.92;100.00
6413;BME280;3239;48.714;9.472;2023-03-13T02:17:17;97926.13;;;6.28;100.00
6413;BME280;3239;48.714;9.472;2023-03-13T02:19:45;97910.69;;;5.90;100.00
6413;BME280;3239;48.714;9.472;2023-03-13T02:28:10;97898.13;;;5.54;100.00
6413;BME280;3239;48.714;9.472;2023-03-13T02:30:37;97900.84;;;5.54;100.00
6413;BME280;3239;48.714;9.472;2023-03-13T02:33:04;97902.31;;;5.66;100.00
6413;BME280;3239;48.714;9.472;2023-03-13T02:35:30;97893.94;;;5.53;100.00
6413;BME280;3239;48.714;9.472;2023-03-13T02:38:04;97894.19;;;5.33;100.00
6413;BME280;3239;48.714;9.472;2023-03-13T02:40:39;97892.22;;;5.50;100.00
6413;BME280;3239;48.714;9.472;2023-03-13T02:43:25;97880.84;;;5.62;100.00
6413;BME280;3239;48.714;9.472;2023-03-13T02:46:08;97888.03;;;5.49;100.00
6413;BME280;3239;48.714;9.472;2023-03-13T02:48:41;97885.03;;;5.58;100.00
6413;BME280;3239;48.714;9.472;2023-03-13T02:51:27;97885.81;;;5.47;100.00
6413;BME280;3239;48.714;9.472;2023-03-13T02:53:59;97884.09;;;5.28;100.00
6413;BME280;3239;48.714;9.472;2023-03-13T02:56:27;97883.81;;;5.42;100.00
6413;BME280;3239;48.714;9.472;2023-03-13T02:58:56;97883.81;;;5.42;100.00
6413;BME280;3239;48.714;9.472;2023-03-13T03:01:21;97868.03;;;5.41;100.00
6413;BME280;3239;48.714;9.472;2023-03-13T03:03:47;97877.44;;;5.29;100.00
6413;BME280;3239;48.714;9.472;2023-03-13T03:06:13;97867.03;;;5.33;100.00
6413;BME280;3239;48.714;9.472;2023-03-13T03:08:39;97865.81;;;5.34;100.00
6413;BME280;3239;48.714;9.472;2023-03-13T03:11:06;97870.47;;;5.44;100.00
6413;BME280;3239;48.714;9.472;2023-03-13T03:13:32;97877.38;;;5.45;100.00
6413;BME280;3239;48.714;9.472;2023-03-13T03:15:58;97863.31;;;5.52;100.00
6413;BME280;3239;48.714;9.472;2023-03-13T03:18:24;97862.34;;;5.50;100.00
6413;BME280;3239;48.714;9.472;2023-03-13T03:20:50;97854.66;;;5.54;100.00
6413;BME280;3239;48.714;9.472;2023-03-13T03:23:15;97844.53;;;5.54;100.00
6413;BME280;3239;48.714;9.472;2023-03-13T03:25:41;97844.00;;;5.61;100.00
6413;BME280;3239;48.714;9.472;2023-03-13T03:28:07;97845.78;;;5.53;100.00
6413;BME280;3239;48.714;9.472;2023-03-13T03:30:33;97843.53;;;5.57;100.00
6413;BME280;3239;48.714;9.472;2023-03-13T03:32:58;97831.41;;;5.64;100.00
6413;BME280;3239;48.714;9.472;2023-03-13T03:35:24;97847.22;;;5.65;100.00
6413;BME280;3239;48.714;9.472;2023-03-13T03:37:50;97840.06;;;5.62;100.00
6413;BME280;3239;48.714;9.472;2023-03-13T03:40:16;97831.16;;;5.67;100.00
6413;BME280;3239;48.714;9.472;2023-03-13T03:42:41;97839.28;;;5.78;100.00
6413;BME280;3239;48.714;9.472;2023-03-13T03:45:08;97835.34;;;5.74;100.00
6413;BME280;3239;48.714;9.472;2023-03-13T03:47:33;97828.41;;;5.78;100.00
6413;BME280;3239;48.714;9.472;2023-03-13T03:49:59;97831.41;;;5.80;100.00
6413;BME280;3239;48.714;9.472;2023-03-13T03:52:25;97832.09;;;5.86;100.00
6413;BME280;3239;48.714;9.472;2023-03-13T03:54:50;97834.81;;;5.92;100.00
6413;BME280;3239;48.714;9.472;2023-03-13T03:57:16;97846.19;;;5.90;100.00
6413;BME280;3239;48.714;9.472;2023-03-13T03:59:42;97846.91;;;5.91;100.00
6413;BME280;3239;48.714;9.472;2023-03-13T04:02:07;97840.75;;;5.85;100.00
6413;BME280;3239;48.714;9.472;2023-03-13T04:04:33;97852.06;;;6.00;100.00
6413;BME280;3239;48.714;9.472;2023-03-13T04:06:59;97846.66;;;5.94;100.00
6413;BME280;3239;48.714;9.472;2023-03-13T04:09:25;97860.22;;;6.00;100.00
6413;BME280;3239;48.714;9.472;2023-03-13T04:11:51;97859.47;;;6.05;100.00
6413;BME280;3239;48.714;9.472;2023-03-13T04:14:16;97859.75;;;5.96;100.00
6413;BME280;3239;48.714;9.472;2023-03-13T04:16:42;97861.03;;;5.89;100.00
6413;BME280;3239;48.714;9.472;2023-03-13T04:19:08;97875.84;;;5.88;100.00
6413;BME280;3239;48.714;9.472;2023-03-13T04:21:33;97879.78;;;5.87;100.00
6413;BME280;3239;48.714;9.472;2023-03-13T04:23:59;97868.66;;;5.91;100.00
6413;BME280;3239;48.714;9.472;2023-03-13T04:26:25;97889.44;;;5.88;100.00
6413;BME280;3239;48.714;9.472;2023-03-13T04:28:51;97879.03;;;5.92;100.00
6413;BME280;3239;48.714;9.472;2023-03-13T04:31:16;97873.09;;;5.94;100.00
6413;BME280;3239;48.714;9.472;2023-03-13T04:33:42;97879.75;;;5.98;100.00
6413;BME280;3239;48.714;9.472;2023-03-13T04:36:08;97879.72;;;6.09;100.00
6413;BME280;3239;48.714;9.472;2023-03-13T04:38:34;97872.50;;;6.23;100.00
6413;BME280;3239;48.714;9.472;2023-03-13T04:41:00;97884.09;;;6.29;100.00
6413;BME280;3239;48.714;9.472;2023-03-13T04:43:25;97873.50;;;6.20;100.00
6413;BME280;3239;48.714;9.472;2023-03-13T04:45:52;97881.41;;;6.23;100.00
6413;BME280;3239;48.714;9.472;2023-03-13T04:48:21;97874.97;;;6.26;100.00
6413;BME280;3239;48.714;9.472;2023-03-13T04:50:47;97880.28;;;6.48;100.00
6413;BME280;3239;48.714;9.472;2023-03-13T04:53:13;97884.84;;;6.70;100.00
6413;BME280;3239;48.714;9.472;2023-03-13T04:55:39;97882.97;;;6.54;100.00
6413;BME280;3239;48.714;9.472;2023-03-13T04:58:05;97875.56;;;6.54;100.00
6413;BME280;3239;48.714;9.472;2023-03-13T05:00:30;97890.47;;;6.83;100.00
6413;BME280;3239;48.714;9.472;2023-03-13T05:02:56;97885.34;;;7.09;100.00
6413;BME280;3239;48.714;9.472;2023-03-13T05:05:22;97889.50;;;7.15;100.00
6413;BME280;3239;48.714;9.472;2023-03-13T05:07:47;97877.00;;;6.61;100.00
6413;BME280;3239;48.714;9.472;2023-03-13T05:10:13;97866.44;;;6.46;100.00
6413;BME280;3239;48.714;9.472;2023-03-13T05:12:39;97868.84;;;6.61;100.00
6413;BME280;3239;48.714;9.472;2023-03-13T05:15:05;97856.16;;;6.69;100.00
6413;BME280;3239;48.714;9.472;2023-03-13T05:17:32;97867.91;;;6.88;100.00
6413;BME280;3239;48.714;9.472;2023-03-13T05:19:58;97869.38;;;6.94;100.00
6413;BME280;3239;48.714;9.472;2023-03-13T05:22:23;97863.47;;;6.85;100.00
6413;BME280;3239;48.714;9.472;2023-03-13T05:24:49;97856.78;;;6.86;100.00
6413;BME280;3239;48.714;9.472;2023-03-13T05:27:15;97854.78;;;6.92;100.00
6413;BME280;3239;48.714;9.472;2023-03-13T05:29:40;97853.81;;;7.19;100.00
6413;BME280;3239;48.714;9.472;2023-03-13T05:32:06;97863.88;;;7.29;100.00
6413;BME280;3239;48.714;9.472;2023-03-13T05:34:32;97862.50;;;7.41;100.00
6413;BME280;3239;48.714;9.472;2023-03-13T05:36:58;97854.28;;;7.47;100.00
6413;BME280;3239;48.714;9.472;2023-03-13T05:39:23;97853.97;;;7.56;100.00
6413;BME280;3239;48.714;9.472;2023-03-13T05:41:49;97848.63;;;7.69;100.00
6413;BME280;3239;48.714;9.472;2023-03-13T05:44:15;97853.66;;;7.83;100.00
6413;BME280;3239;48.714;9.472;2023-03-13T05:46:40;97841.09;;;7.99;100.00
6413;BME280;3239;48.714;9.472;2023-03-13T05:49:06;97831.41;;;7.79;100.00
6413;BME280;3239;48.714;9.472;2023-03-13T05:51:32;97825.00;;;7.77;100.00
6413;BME280;3239;48.714;9.472;2023-03-13T05:53:58;97819.41;;;7.88;100.00
6413;BME280;3239;48.714;9.472;2023-03-13T05:56:23;97797.59;;;7.88;100.00
6413;BME280;3239;48.714;9.472;2023-03-13T05:58:49;97792.59;;;7.92;100.00
6413;BME280;3239;48.714;9.472;2023-03-13T06:01:15;97786.22;;;8.02;100.00
6413;BME280;3239;48.714;9.472;2023-03-13T06:03:41;97769.56;;;8.06;100.00
6413;BME280;3239;48.714;9.472;2023-03-13T06:06:06;97765.00;;;8.14;100.00
6413;BME280;3239;48.714;9.472;2023-03-13T06:08:32;97752.25;;;8.22;100.00
6413;BME280;3239;48.714;9.472;2023-03-13T06:11:03;97738.44;;;8.33;100.00
6413;BME280;3239;48.714;9.472;2023-03-13T06:13:29;97736.25;;;8.31;100.00
6413;BME280;3239;48.714;9.472;2023-03-13T06:15:56;97735.72;;;8.33;100.00
6413;BME280;3239;48.714;9.472;2023-03-13T06:18:24;97729.25;;;7.99;100.00
6413;BME280;3239;48.714;9.472;2023-03-13T06:20:59;97741.19;;;7.96;100.00
6413;BME280;3239;48.714;9.472;2023-03-13T06:23:26;97749.97;;;8.07;100.00
6413;BME280;3239;48.714;9.472;2023-03-13T06:25:53;97757.16;;;8.29;100.00
6413;BME280;3239;48.714;9.472;2023-03-13T06:28:21;97756.44;;;8.41;100.00
6413;BME280;3239;48.714;9.472;2023-03-13T06:30:49;97761.78;;;8.34;100.00
6413;BME280;3239;48.714;9.472;2023-03-13T06:33:15;97760.50;;;7.98;100.00
6413;BME280;3239;48.714;9.472;2023-03-13T06:35:47;97771.44;;;7.98;100.00
6413;BME280;3239;48.714;9.472;2023-03-13T06:38:15;97764.78;;;8.12;100.00
6413;BME280;3239;48.714;9.472;2023-03-13T06:40:44;97783.53;;;8.39;100.00
6413;BME280;3239;48.714;9.472;2023-03-13T06:43:10;97784.97;;;8.59;100.00
6413;BME280;3239;48.714;9.472;2023-03-13T06:45:36;97802.06;;;8.78;100.00
6413;BME280;3239;48.714;9.472;2023-03-13T06:48:03;97786.34;;;8.97;100.00
6413;BME280;3239;48.714;9.472;2023-03-13T06:50:29;97790.72;;;9.18;100.00
6413;BME280;3239;48.714;9.472;2023-03-13T06:52:55;97782.22;;;9.35;100.00
6413;BME280;3239;48.714;9.472;2023-03-13T06:55:25;97776.84;;;9.55;100.00
6413;BME280;3239;48.714;9.472;2023-03-13T06:57:51;97756.00;;;9.13;100.00
6413;BME280;3239;48.714;9.472;2023-03-13T07:00:19;97753.59;;;9.49;100.00
6413;BME280;3239;48.714;9.472;2023-03-13T07:02:50;97733.59;;;9.93;100.00
6413;BME280;3239;48.714;9.472;2023-03-13T07:05:18;97713.63;;;10.18;100.00
6413;BME280;3239;48.714;9.472;2023-03-13T07:07:44;97691.88;;;10.33;100.00
6413;BME280;3239;48.714;9.472;2023-03-13T07:10:17;97678.13;;;10.46;100.00
6413;BME280;3239;48.714;9.472;2023-03-13T07:12:43;97671.56;;;10.70;100.00
6413;BME280;3239;48.714;9.472;2023-03-13T07:15:19;97653.31;;;10.72;100.00
6413;BME280;3239;48.714;9.472;2023-03-13T07:17:45;97648.03;;;10.74;100.00
6413;BME280;3239;48.714;9.472;2023-03-13T07:20:13;97652.97;;;10.76;100.00
6413;BME280;3239;48.714;9.472;2023-03-13T07:22:38;97651.94;;;11.14;100.00
6413;BME280;3239;48.714;9.472;2023-03-13T07:25:09;97644.06;;;11.11;100.00
6413;BME280;3239;48.714;9.472;2023-03-13T07:27:35;97646.75;;;11.03;100.00
6413;BME280;3239;48.714;9.472;2023-03-13T07:30:01;97647.28;;;11.02;100.00
6413;BME280;3239;48.714;9.472;2023-03-13T07:32:31;97639.81;;;11.02;100.00
6413;BME280;3239;48.714;9.472;2023-03-13T07:34:57;97648.19;;;10.97;100.00
6413;BME280;3239;48.714;9.472;2023-03-13T07:37:23;97644.50;;;10.94;100.00
6413;BME280;3239;48.714;9.472;2023-03-13T07:39:49;97642.56;;;11.02;100.00
6413;BME280;3239;48.714;9.472;2023-03-13T07:42:14;97635.81;;;11.03;100.00
6413;BME280;3239;48.714;9.472;2023-03-13T07:44:40;97630.31;;;11.39;100.00
6413;BME280;3239;48.714;9.472;2023-03-13T07:47:06;97625.94;;;11.36;100.00
6413;BME280;3239;48.714;9.472;2023-03-13T07:49:32;97620.59;;;11.73;100.00
6413;BME280;3239;48.714;9.472;2023-03-13T07:51:58;97619.00;;;11.85;100.00
6413;BME280;3239;48.714;9.472;2023-03-13T07:54:24;97596.13;;;11.83;100.00
6413;BME280;3239;48.714;9.472;2023-03-13T07:56:49;97609.66;;;11.88;100.00
6413;BME280;3239;48.714;9.472;2023-03-13T07:59:16;97609.25;;;11.77;100.00
6413;BME280;3239;48.714;9.472;2023-03-13T08:01:42;97604.91;;;11.89;100.00
6413;BME280;3239;48.714;9.472;2023-03-13T08:04:12;97594.31;;;12.15;100.00
6413;BME280;3239;48.714;9.472;2023-03-13T08:06:38;97575.84;;;12.31;100.00
6413;BME280;3239;48.714;9.472;2023-03-13T08:09:05;97568.88;;;12.37;100.00
6413;BME280;3239;48.714;9.472;2023-03-13T08:11:31;97568.31;;;12.46;100.00
6413;BME280;3239;48.714;9.472;2023-03-13T08:13:57;97555.13;;;12.52;100.00
6413;BME280;3239;48.714;9.472;2023-03-13T08:16:27;97550.53;;;12.47;100.00
6413;BME280;3239;48.714;9.472;2023-03-13T08:18:56;97556.38;;;12.66;100.00
6413;BME280;3239;48.714;9.472;2023-03-13T08:21:29;97529.03;;;12.91;100.00
6413;BME280;3239;48.714;9.472;2023-03-13T08:23:58;97520.22;;;12.92;100.00
6413;BME280;3239;48.714;9.472;2023-03-13T08:26:29;97511.97;;;12.92;100.00
6413;BME280;3239;48.714;9.472;2023-03-13T08:28:58;97501.88;;;12.95;100.00
6413;BME280;3239;48.714;9.472;2023-03-13T08:31:34;97493.44;;;13.00;100.00
6413;BME280;3239;48.714;9.472;2023-03-13T08:34:00;97482.81;;;13.04;100.00
6413;BME280;3239;48.714;9.472;2023-03-13T08:38:53;97467.44;;;13.33;100.00
6413;BME280;3239;48.714;9.472;2023-03-13T08:41:23;97461.22;;;13.57;100.00
6413;BME280;3239;48.714;9.472;2023-03-13T08:43:52;97458.34;;;13.97;100.00
6413;BME280;3239;48.714;9.472;2023-03-13T08:46:18;97441.13;;;14.13;100.00
6413;BME280;3239;48.714;9.472;2023-03-13T08:48:47;97440.72;;;14.17;100.00
6413;BME280;3239;48.714;9.472;2023-03-13T08:51:14;97442.22;;;14.35;100.00
6413;BME280;3239;48.714;9.472;2023-03-13T08:53:42;97443.53;;;14.51;100.00
6413;BME280;3239;48.714;9.472;2023-03-13T08:56:15;97430.91;;;14.31;100.00
6413;BME280;3239;48.714;9.472;2023-03-13T08:58:41;97436.41;;;14.31;100.00
6413;BME280;3239;48.714;9.472;2023-03-13T09:01:10;97439.25;;;14.23;100.00
6413;BME280;3239;48.714;9.472;2023-03-13T09:03:36;97439.66;;;14.20;100.00
6413;BME280;3239;48.714;9.472;2023-03-13T09:06:03;97434.06;;;14.03;100.00
6413;BME280;3239;48.714;9.472;2023-03-13T09:08:30;97440.72;;;14.00;100.00
6413;BME280;3239;48.714;9.472;2023-03-13T09:11:17;97441.03;;;14.04;100.00
6413;BME280;3239;48.714;9.472;2023-03-13T09:13:46;97446.31;;;14.09;100.00
6413;BME280;3239;48.714;9.472;2023-03-13T09:16:23;97459.78;;;14.22;100.00
6413;BME280;3239;48.714;9.472;2023-03-13T09:18:50;97428.94;;;14.24;100.00
6413;BME280;3239;48.714;9.472;2023-03-13T09:21:22;97439.38;;;14.25;100.00
6413;BME280;3239;48.714;9.472;2023-03-13T09:23:49;97439.53;;;14.27;100.00
6413;BME280;3239;48.714;9.472;2023-03-13T09:26:16;97448.88;;;14.32;100.00
6413;BME280;3239;48.714;9.472;2023-03-13T09:28:43;97445.38;;;14.31;100.00
6413;BME280;3239;48.714;9.472;2023-03-13T09:31:13;97435.25;;;14.51;100.00
6413;BME280;3239;48.714;9.472;2023-03-13T09:33:40;97437.28;;;14.50;100.00
6413;BME280;3239;48.714;9.472;2023-03-13T09:36:07;97428.69;;;14.46;100.00
6413;BME280;3239;48.714;9.472;2023-03-13T09:38:33;97422.28;;;14.61;100.00
6413;BME280;3239;48.714;9.472;2023-03-13T09:41:32;97415.53;;;14.88;100.00
6413;BME280;3239;48.714;9.472;2023-03-13T09:44:31;97418.13;;;14.86;100.00
6413;BME280;3239;48.714;9.472;2023-03-13T09:47:13;97420.66;;;15.01;100.00
6413;BME280;3239;48.714;9.472;2023-03-13T09:49:47;97418.19;;;15.22;100.00
6413;BME280;3239;48.714;9.472;2023-03-13T09:52:25;97410.91;;;15.44;100.00
6413;BME280;3239;48.714;9.472;2023-03-13T09:55:25;97402.31;;;15.40;100.00
6413;BME280;3239;48.714;9.472;2023-03-13T09:58:03;97407.56;;;15.36;100.00
6413;BME280;3239;48.714;9.472;2023-03-13T10:00:42;97407.09;;;15.13;100.00
6413;BME280;3239;48.714;9.472;2023-03-13T10:03:22;97415.06;;;15.09;100.00
6413;BME280;3239;48.714;9.472;2023-03-13T10:05:59;97415.94;;;15.11;100.00
6413;BME280;3239;48.714;9.472;2023-03-13T10:08:34;97415.66;;;15.34;100.00
6413;BME280;3239;48.714;9.472;2023-03-13T10:11:10;97416.41;;;15.17;100.00
6413;BME280;3239;48.714;9.472;2023-03-13T10:14:13;97413.09;;;15.19;100.00
6413;BME280;3239;48.714;9.472;2023-03-13T10:19:55;97398.56;;;15.45;100.00
6413;BME280;3239;48.714;9.472;2023-03-13T10:22:25;97386.94;;;15.46;100.00
6413;BME280;3239;48.714;9.472;2023-03-13T10:24:59;97377.56;;;15.68;100.00
6413;BME280;3239;48.714;9.472;2023-03-13T10:27:29;97356.09;;;15.95;100.00
6413;BME280;3239;48.714;9.472;2023-03-13T10:29:56;97352.19;;;16.17;100.00
6413;BME280;3239;48.714;9.472;2023-03-13T10:32:23;97341.19;;;16.55;100.00
6413;BME280;3239;48.714;9.472;2023-03-13T10:35:00;97334.56;;;17.29;100.00
6413;BME280;3239;48.714;9.472;2023-03-13T10:39:53;97295.22;;;17.30;100.00
6413;BME280;3239;48.714;9.472;2023-03-13T10:42:31;97277.13;;;18.55;100.00
6413;BME280;3239;48.714;9.472;2023-03-13T10:45:04;97271.19;;;19.87;100.00
6413;BME280;3239;48.714;9.472;2023-03-13T10:47:33;97267.25;;;21.04;100.00
6413;BME280;3239;48.714;9.472;2023-03-13T10:50:01;97255.69;;;19.96;100.00
6413;BME280;3239;48.714;9.472;2023-03-13T10:55:04;97250.59;;;18.75;100.00
6413;BME280;3239;48.714;9.472;2023-03-13T10:57:35;97247.56;;;19.63;100.00
6413;BME280;3239;48.714;9.472;2023-03-13T11:00:35;97241.47;;;19.30;100.00
6413;BME280;3239;48.714;9.472;2023-03-13T11:03:18;97228.34;;;18.41;100.00
6413;BME280;3239;48.714;9.472;2023-03-13T11:08:36;97219.75;;;19.27;100.00
6413;BME280;3239;48.714;9.472;2023-03-13T11:11:05;97222.41;;;20.09;100.00
6413;BME280;3239;48.714;9.472;2023-03-13T11:13:42;97198.69;;;20.33;100.00
6413;BME280;3239;48.714;9.472;2023-03-13T11:16:23;97197.19;;;20.82;100.00
6413;BME280;3239;48.714;9.472;2023-03-13T11:36:37;97171.69;;;20.88;100.00
6413;BME280;3239;48.714;9.472;2023-03-13T11:42:01;97156.50;;;20.12;100.00
6413;BME280;3239;48.714;9.472;2023-03-13T11:50:43;97111.38;;;22.51;97.07
6413;BME280;3239;48.714;9.472;2023-03-13T11:56:32;97101.91;;;21.82;96.06
6413;BME280;3239;48.714;9.472;2023-03-13T12:04:57;97083.88;;;22.14;94.58
6413;BME280;3239;48.714;9.472;2023-03-13T12:07:38;97084.34;;;22.40;84.34
6413;BME280;3239;48.714;9.472;2023-03-13T12:10:54;97064.03;;;21.48;96.61
6413;BME280;3239;48.714;9.472;2023-03-13T12:13:36;97077.47;;;20.96;98.87
6413;BME280;3239;48.714;9.472;2023-03-13T12:16:14;97055.81;;;21.66;98.28
6413;BME280;3239;48.714;9.472;2023-03-13T12:18:43;97044.41;;;22.84;87.99
6413;BME280;3239;48.714;9.472;2023-03-13T12:21:27;97033.84;;;22.49;85.75
6413;BME280;3239;48.714;9.472;2023-03-13T12:24:27;97033.75;;;22.16;93.73
6413;BME280;3239;48.714;9.472;2023-03-13T12:27:09;97031.06;;;23.15;80.87
6413;BME280;3239;48.714;9.472;2023-03-13T12:29:50;97022.66;;;24.42;70.24
6413;BME280;3239;48.714;9.472;2023-03-13T12:32:37;97013.19;;;23.40;70.24
6413;BME280;3239;48.714;9.472;2023-03-13T12:35:28;97000.19;;;24.79;63.59
6413;BME280;3239;48.714;9.472;2023-03-13T12:43:38;96983.84;;;26.81;46.43
6413;BME280;3239;48.714;9.472;2023-03-13T12:58:23;96932.75;;;28.12;42.92
6413;BME280;3239;48.714;9.472;2023-03-13T13:00:51;96918.44;;;25.51;46.36
6413;BME280;3239;48.714;9.472;2023-03-13T13:06:15;96902.31;;;25.51;49.79
6413;BME280;3239;48.714;9.472;2023-03-13T13:09:06;96886.53;;;26.38;48.46
6413;BME280;3239;48.714;9.472;2023-03-13T13:14:01;96873.25;;;25.90;47.13
6413;BME280;3239;48.714;9.472;2023-03-13T13:16:27;96861.34;;;26.15;45.25
6413;BME280;3239;48.714;9.472;2023-03-13T13:18:54;96856.19;;;26.90;46.77
6413;BME280;3239;48.714;9.472;2023-03-13T13:21:24;96852.13;;;26.12;43.10
6413;BME280;3239;48.714;9.472;2023-03-13T13:24:38;96849.56;;;25.46;46.99
6413;BME280;3239;48.714;9.472;2023-03-13T13:32:43;96818.03;;;26.51;41.53
6413;BME280;3239;48.714;9.472;2023-03-13T13:35:34;96805.00;;;27.58;40.59
6413;BME280;3239;48.714;9.472;2023-03-13T13:46:30;96789.63;;;25.10;45.81
6413;BME280;3239;48.714;9.472;2023-03-13T13:51:31;96781.53;;;25.22;44.98
6413;BME280;3239;48.714;9.472;2023-03-13T13:56:48;96766.47;;;24.41;48.70
6413;BME280;3239;48.714;9.472;2023-03-13T14:02:16;96748.06;;;25.51;47.62
6413;BME280;3239;48.714;9.472;2023-03-13T14:05:06;96740.00;;;24.91;47.39
6413;BME280;3239;48.714;9.472;2023-03-13T14:12:39;96718.38;;;24.93;45.12
6413;BME280;3239;48.714;9.472;2023-03-13T14:18:16;96718.72;;;25.82;41.85
6413;BME280;3239;48.714;9.472;2023-03-13T14:23:38;96702.63;;;23.51;45.40
6413;BME280;3239;48.714;9.472;2023-03-13T14:26:16;96700.69;;;23.56;48.80
6413;BME280;3239;48.714;9.472;2023-03-13T14:28:49;96710.53;;;23.78;46.83
6413;BME280;3239;48.714;9.472;2023-03-13T14:31:29;96700.00;;;24.41;46.04
6413;BME280;3239;48.714;9.472;2023-03-13T14:34:12;96698.25;;;25.50;43.72
6413;BME280;3239;48.714;9.472;2023-03-13T14:36:57;96693.56;;;25.33;43.72
6413;BME280;3239;48.714;9.472;2023-03-13T14:42:02;96678.88;;;24.15;47.52
6413;BME280;3239;48.714;9.472;2023-03-13T14:44:31;96672.19;;;25.20;43.58
6413;BME280;3239;48.714;9.472;2023-03-13T14:47:07;96655.25;;;25.41;41.90
6413;BME280;3239;48.714;9.472;2023-03-13T14:49:37;96647.22;;;25.85;41.49
6413;BME280;3239;48.714;9.472;2023-03-13T14:57:27;96632.50;;;25.84;42.30
6413;BME280;3239;48.714;9.472;2023-03-13T14:59:55;96634.34;;;25.74;44.05
6413;BME280;3239;48.714;9.472;2023-03-13T15:02:45;96622.50;;;24.48;47.03
6413;BME280;3239;48.714;9.472;2023-03-13T15:05:30;96614.09;;;25.22;45.72
6413;BME280;3239;48.714;9.472;2023-03-13T15:07:57;96606.38;;;25.23;42.60
6413;BME280;3239;48.714;9.472;2023-03-13T15:10:34;96610.25;;;25.10;43.19
6413;BME280;3239;48.714;9.472;2023-03-13T15:13:32;96613.00;;;24.35;47.23
6413;BME280;3239;48.714;9.472;2023-03-13T15:15:59;96595.88;;;25.78;41.37
6413;BME280;3239;48.714;9.472;2023-03-13T15:18:28;96590.44;;;26.47;41.52
6413;BME280;3239;48.714;9.472;2023-03-13T15:26:22;96545.94;;;31.54;30.66
6413;BME280;3239;48.714;9.472;2023-03-13T15:28:49;96540.00;;;30.50;30.21
6413;BME280;3239;48.714;9.472;2023-03-13T15:31:15;96536.28;;;28.03;33.91
6413;BME280;3239;48.714;9.472;2023-03-13T15:33:42;96529.00;;;28.99;35.72
6413;BME280;3239;48.714;9.472;2023-03-13T15:36:09;96521.38;;;27.09;39.82
6413;BME280;3239;48.714;9.472;2023-03-13T15:38:35;96522.91;;;23.92;50.78
6413;BME280;3239;48.714;9.472;2023-03-13T15:41:03;96515.59;;;24.30;53.94
6413;BME280;3239;48.714;9.472;2023-03-13T15:43:29;96513.78;;;22.84;68.45